Time;durP1;ratioP1;P1;durP2;ratioP2;P2;SDS_P1;SDS_P2;PMS_P1;PMS_P2;Temp;Humidity;BMP_temperature;BMP_pressure;BME280_temperature;BME280_humidity;BME280_pressure;Samples;Min_cycle;Max_cycle;Signal;HPM_P1;HPM_P2
2023/10/28 00:01:14;;;;;;;8.18;0.93;;;;;;;14.74;55.46;97660.56;5094403;28;20028;-49
2023/10/28 00:03:41;;;;;;;2.67;0.63;;;;;;;14.68;55.55;97666.88;5094257;28;20059;-48
2023/10/28 00:06:10;;;;;;;3.88;0.70;;;;;;;14.66;55.81;97661.03;5093565;28;20046;-49
2023/10/28 00:08:36;;;;;;;4.38;0.70;;;;;;;14.63;55.90;97667.63;5094287;28;20397;-48
2023/10/28 00:11:04;;;;;;;3.83;0.73;;;;;;;14.65;55.46;97660.25;5093007;28;20031;-49
2023/10/28 00:13:30;;;;;;;3.97;1.10;;;;;;;14.66;55.48;97661.84;5092714;28;20058;-49
2023/10/28 00:15:56;;;;;;;1.30;0.80;;;;;;;14.71;55.50;97661.88;5092774;28;20062;-49
2023/10/28 00:18:22;;;;;;;4.18;0.93;;;;;;;14.80;55.36;97659.56;5094083;28;20051;-49
2023/10/28 00:20:48;;;;;;;4.43;0.80;;;;;;;14.78;54.51;97661.66;5094035;28;20024;-49
2023/10/28 00:23:14;;;;;;;2.03;0.75;;;;;;;14.70;54.65;97655.00;5092704;28;20016;-48
2023/10/28 00:25:43;;;;;;;2.00;1.35;;;;;;;14.58;55.20;97657.00;5093899;28;20462;-49
2023/10/28 00:28:09;;;;;;;4.60;0.95;;;;;;;14.54;55.51;97654.03;5092603;28;20027;-49
2023/10/28 00:30:39;;;;;;;3.88;0.70;;;;;;;14.50;55.53;97662.72;5092460;28;20020;-48
2023/10/28 00:33:05;;;;;;;2.13;1.10;;;;;;;14.46;55.64;97649.22;5093795;28;20051;-48
2023/10/28 00:35:31;;;;;;;3.85;0.60;;;;;;;14.40;55.95;97671.34;5093654;28;20048;-48
2023/10/28 00:37:58;;;;;;;4.50;1.30;;;;;;;14.36;55.96;97667.63;5093736;28;20432;-49
2023/10/28 00:40:28;;;;;;;3.88;0.93;;;;;;;14.30;56.07;97660.69;5092268;28;20494;-48
2023/10/28 00:42:54;;;;;;;5.53;0.90;;;;;;;14.26;56.26;97665.66;5093598;28;20024;-49
2023/10/28 00:45:19;;;;;;;6.70;1.08;;;;;;;14.26;56.16;97659.59;5092457;28;20585;-49
2023/10/28 00:47:49;;;;;;;2.50;0.80;;;;;;;14.23;56.51;97662.75;5092174;28;20020;-48
2023/10/28 00:50:15;;;;;;;2.40;0.80;;;;;;;14.22;56.25;97666.41;5093460;28;20502;-48
2023/10/28 00:52:50;;;;;;;3.80;1.90;;;;;;;14.19;56.18;97660.59;5093368;28;20020;-49
2023/10/28 00:55:18;;;;;;;4.38;1.00;;;;;;;14.21;56.09;97662.19;5093404;28;20439;-48
2023/10/28 00:57:44;;;;;;;3.97;0.90;;;;;;;14.21;55.99;97668.28;5093278;28;20024;-49
2023/10/28 01:00:11;;;;;;;2.85;0.80;;;;;;;14.22;55.89;97661.13;5093292;28;20024;-49
2023/10/28 01:02:39;;;;;;;6.07;2.65;;;;;;;14.20;55.98;97666.66;5093215;28;20103;-49
2023/10/28 01:05:09;;;;;;;6.07;1.27;;;;;;;14.21;56.05;97659.56;5093121;28;20034;-49
2023/10/28 01:07:38;;;;;;;2.20;0.70;;;;;;;14.23;56.04;97658.25;5093484;28;20402;-48
2023/10/28 01:10:05;;;;;;;5.43;1.10;;;;;;;14.26;55.93;97651.69;5091752;28;20111;-49
2023/10/28 01:12:32;;;;;;;1.42;0.70;;;;;;;14.30;55.46;97658.84;5092757;28;20039;-49
2023/10/28 01:14:57;;;;;;;4.25;1.10;;;;;;;14.34;55.28;97654.66;5091988;28;20028;-48
2023/10/28 01:17:26;;;;;;;2.47;0.90;;;;;;;14.36;55.24;97647.28;5092924;28;20027;-49
2023/10/28 01:19:53;;;;;;;2.28;0.70;;;;;;;14.37;55.20;97648.91;5091587;28;20097;-49
2023/10/28 01:22:21;;;;;;;1.67;0.60;;;;;;;14.39;54.96;97651.28;5092790;28;20502;-49
2023/10/28 01:24:47;;;;;;;0.98;0.55;;;;;;;14.37;55.05;97656.03;5092763;28;20032;-49
2023/10/28 01:27:12;;;;;;;3.05;1.20;;;;;;;14.33;55.34;97658.34;5091447;28;20115;-49
2023/10/28 01:29:38;;;;;;;2.65;0.80;;;;;;;14.31;55.37;97657.03;5091371;28;20043;-49
2023/10/28 01:32:04;;;;;;;2.67;0.85;;;;;;;14.30;55.20;97653.56;5091658;28;20020;-48
2023/10/28 01:34:32;;;;;;;1.58;0.70;;;;;;;14.31;55.36;97659.66;5092536;28;20069;-49
2023/10/28 01:36:58;;;;;;;2.83;0.60;;;;;;;14.37;55.38;97661.31;5091202;28;20080;-48
2023/10/28 01:39:24;;;;;;;2.92;0.90;;;;;;;14.41;55.03;97661.56;5092550;28;20099;-49
2023/10/28 01:41:49;;;;;;;3.45;0.88;;;;;;;14.46;54.68;97656.34;5091171;28;20131;-49
2023/10/28 01:44:16;;;;;;;4.45;0.70;;;;;;;14.48;54.25;97649.78;5091131;28;20034;-49
2023/10/28 01:46:42;;;;;;;1.45;0.60;;;;;;;14.47;54.33;97650.84;5092376;28;20023;-49
2023/10/28 01:49:10;;;;;;;1.42;0.55;;;;;;;14.49;53.81;97650.59;5091045;28;20032;-49
2023/10/28 01:51:36;;;;;;;2.65;0.80;;;;;;;14.46;53.84;97645.78;5092329;28;20028;-48
2023/10/28 01:54:03;;;;;;;5.35;0.88;;;;;;;14.39;53.99;97638.88;5092181;28;20407;-49
2023/10/28 01:56:28;;;;;;;3.47;0.80;;;;;;;14.36;53.75;97638.56;5090938;28;20040;-48
2023/10/28 01:58:55;;;;;;;5.75;0.95;;;;;;;14.28;54.14;97641.66;5090928;28;20129;-48
2023/10/28 02:01:25;;;;;;;3.85;0.70;;;;;;;14.27;54.34;97642.72;5092426;28;20031;-49
2023/10/28 02:03:51;;;;;;;4.07;0.90;;;;;;;14.23;54.29;97639.78;5092204;28;20130;-48
2023/10/28 02:06:17;;;;;;;2.33;0.63;;;;;;;14.25;54.14;97637.69;5090796;28;20072;-48
2023/10/28 02:08:43;;;;;;;3.15;0.70;;;;;;;14.24;54.03;97640.56;5090789;28;20571;-49
2023/10/28 02:11:08;;;;;;;6.30;0.90;;;;;;;14.23;54.16;97633.72;5092029;28;20035;-49
2023/10/28 02:13:35;;;;;;;2.17;0.70;;;;;;;14.17;54.41;97628.38;5093436;28;20124;-48
2023/10/28 02:16:01;;;;;;;5.78;1.10;;;;;;;14.13;54.04;97632.56;5092033;28;20422;-49
2023/10/28 02:18:27;;;;;;;2.80;0.75;;;;;;;14.13;53.84;97627.28;5091935;28;20022;-48
2023/10/28 02:20:54;;;;;;;2.90;0.82;;;;;;;14.08;54.07;97621.94;5091937;28;20024;-49
2023/10/28 02:23:20;;;;;;;5.80;1.00;;;;;;;14.05;54.37;97608.47;5091909;28;20510;-49
2023/10/28 02:25:46;;;;;;;2.88;0.90;;;;;;;14.07;54.12;97611.66;5073743;28;20038;-48
2023/10/28 02:28:13;;;;;;;3.30;0.90;;;;;;;14.07;54.16;97615.09;5091451;28;20024;-48
2023/10/28 02:30:40;;;;;;;1.80;0.63;;;;;;;14.12;54.13;97622.25;5091888;28;20073;-49
2023/10/28 02:33:06;;;;;;;5.63;0.98;;;;;;;14.17;53.83;97606.47;5092094;28;20020;-49
2023/10/28 02:35:33;;;;;;;2.95;0.50;;;;;;;14.19;53.64;97610.47;5091597;28;20020;-49
2023/10/28 02:37:59;;;;;;;6.05;1.13;;;;;;;14.21;53.34;97599.66;5091777;28;20032;-49
2023/10/28 02:40:25;;;;;;;4.35;1.10;;;;;;;14.15;53.41;97593.53;5091697;28;20034;-49
2023/10/28 02:42:51;;;;;;;3.53;1.00;;;;;;;14.04;53.61;97594.47;5091752;28;20100;-49
2023/10/28 02:45:17;;;;;;;6.55;1.02;;;;;;;13.94;53.54;97589.09;5091693;28;20085;-48
2023/10/28 02:47:43;;;;;;;3.72;1.02;;;;;;;13.92;53.30;97593.81;5091694;28;20024;-48
2023/10/28 02:50:09;;;;;;;3.83;0.80;;;;;;;13.87;53.37;97588.53;5091701;28;20062;-49
2023/10/28 02:52:35;;;;;;;3.13;0.90;;;;;;;13.84;53.35;97605.63;5091621;28;20505;-48
2023/10/28 02:55:02;;;;;;;4.43;1.70;;;;;;;13.83;53.22;97595.34;5091539;28;20028;-48
2023/10/28 02:57:28;;;;;;;4.60;0.77;;;;;;;13.87;53.25;97612.25;5090328;28;20024;-48
2023/10/28 02:59:54;;;;;;;7.32;2.35;;;;;;;13.91;53.16;97613.34;5090280;28;20417;-48
2023/10/28 03:02:19;;;;;;;7.05;1.20;;;;;;;13.94;53.32;97610.19;5090534;28;20775;-48
2023/10/28 03:04:45;;;;;;;2.65;1.02;;;;;;;13.97;52.90;97609.72;5090262;28;20028;-49
2023/10/28 03:07:11;;;;;;;3.20;0.88;;;;;;;14.00;52.65;97614.47;5090190;28;20020;-48
2023/10/28 03:09:38;;;;;;;2.95;0.90;;;;;;;13.96;53.31;97616.03;5091542;28;20031;-49
2023/10/28 03:12:04;;;;;;;4.25;0.75;;;;;;;13.94;52.84;97610.19;5090304;28;20023;-48
2023/10/28 03:14:30;;;;;;;3.92;1.25;;;;;;;13.88;52.84;97608.56;5089815;28;20127;-49
2023/10/28 03:16:56;;;;;;;4.22;1.05;;;;;;;13.92;52.77;97604.38;5091456;28;20024;-47
2023/10/28 03:19:22;;;;;;;3.72;1.42;;;;;;;13.89;53.03;97607.53;5090121;28;20052;-49
2023/10/28 03:21:47;;;;;;;4.72;1.00;;;;;;;13.88;52.93;97601.44;5090092;28;20106;-48
2023/10/28 03:24:13;;;;;;;2.65;0.77;;;;;;;13.89;52.94;97589.06;5091404;28;20028;-48
2023/10/28 03:26:38;;;;;;;2.78;0.88;;;;;;;13.84;53.10;97597.69;5090017;28;20447;-49
2023/10/28 03:29:04;;;;;;;4.53;1.13;;;;;;;13.78;53.03;97599.50;5091326;28;20024;-48
2023/10/28 03:31:30;;;;;;;4.63;0.90;;;;;;;13.69;53.15;97589.66;5089938;28;20024;-49
2023/10/28 03:33:56;;;;;;;4.13;1.20;;;;;;;13.68;53.08;97591.50;5090119;28;20028;-48
2023/10/28 03:36:21;;;;;;;4.05;0.80;;;;;;;13.63;53.21;97588.78;5089873;28;20028;-49
2023/10/28 03:38:47;;;;;;;2.40;0.75;;;;;;;13.57;53.60;97581.88;5089895;28;20085;-48
2023/10/28 03:41:13;;;;;;;3.38;0.82;;;;;;;13.55;53.65;97583.97;5094096;28;20024;-48
2023/10/28 03:43:41;;;;;;;4.07;0.80;;;;;;;13.49;53.98;97590.22;5094776;28;20059;-49
2023/10/28 03:46:07;;;;;;;3.38;1.02;;;;;;;13.43;54.28;97599.09;5094703;28;20406;-49
2023/10/28 03:48:34;;;;;;;3.15;0.70;;;;;;;13.35;54.61;97595.06;5094692;28;20024;-49
2023/10/28 03:51:02;;;;;;;4.15;0.88;;;;;;;13.33;54.93;97597.94;5093323;28;20051;-48
2023/10/28 03:53:28;;;;;;;5.18;1.42;;;;;;;13.31;55.14;97583.41;5094642;28;20024;-48
2023/10/28 03:55:54;;;;;;;4.65;1.55;;;;;;;13.30;55.07;97587.88;5093262;28;20028;-48
2023/10/28 03:58:19;;;;;;;2.67;0.65;;;;;;;13.29;55.12;97583.66;5094503;28;20070;-49
2023/10/28 04:00:46;;;;;;;5.43;0.85;;;;;;;13.27;55.08;97587.53;5094487;28;20482;-48
2023/10/28 04:03:12;;;;;;;5.05;1.38;;;;;;;13.21;55.24;97584.03;5094450;28;20023;-48
2023/10/28 04:05:38;;;;;;;5.13;1.05;;;;;;;13.13;55.86;97581.84;5094377;28;20502;-49
2023/10/28 04:08:05;;;;;;;3.40;0.90;;;;;;;13.05;55.93;97580.41;5092991;28;20017;-49
2023/10/28 04:10:31;;;;;;;4.32;1.05;;;;;;;13.03;56.20;97586.97;5092937;28;20028;-49
2023/10/28 04:12:56;;;;;;;8.50;1.77;;;;;;;12.99;56.45;97579.53;5093788;28;20042;-49
2023/10/28 04:15:22;;;;;;;4.15;0.90;;;;;;;13.04;56.43;97584.09;5092722;28;20116;-48
2023/10/28 04:17:48;;;;;;;5.80;0.90;;;;;;;13.11;56.22;97578.66;5094165;28;20032;-48
2023/10/28 04:20:14;;;;;;;3.42;0.90;;;;;;;13.19;56.06;97578.22;5092813;28;20097;-48
2023/10/28 04:22:40;;;;;;;4.70;1.40;;;;;;;13.29;55.62;97570.47;5094019;28;20028;-49
2023/10/28 04:25:08;;;;;;;3.00;1.10;;;;;;;13.33;55.47;97571.56;5094010;28;20024;-48
2023/10/28 04:27:34;;;;;;;5.20;0.82;;;;;;;13.33;55.31;97578.69;5092629;28;20020;-48
2023/10/28 04:29:59;;;;;;;4.43;0.80;;;;;;;13.28;55.32;97571.50;5093897;28;20030;-49
2023/10/28 04:32:27;;;;;;;3.13;0.80;;;;;;;13.26;55.28;97564.84;5093809;28;20066;-48
2023/10/28 04:34:53;;;;;;;4.65;0.95;;;;;;;13.24;55.29;97567.75;5093678;28;20052;-49
2023/10/28 04:37:19;;;;;;;1.63;0.52;;;;;;;13.21;55.53;97575.34;5093700;28;20052;-48
2023/10/28 04:39:45;;;;;;;3.42;0.98;;;;;;;13.18;55.83;97566.91;5092388;28;20070;-48
2023/10/28 04:42:10;;;;;;;3.42;0.90;;;;;;;13.15;55.62;97567.38;5092388;28;20041;-49
2023/10/28 04:44:36;;;;;;;5.30;1.00;;;;;;;13.12;55.65;97564.41;5092568;28;20524;-48
2023/10/28 04:47:02;;;;;;;2.58;0.80;;;;;;;13.06;56.09;97568.03;5093506;28;20024;-48
2023/10/28 04:49:28;;;;;;;3.30;0.95;;;;;;;12.98;56.22;97577.97;5093783;28;20020;-48
2023/10/28 04:51:55;;;;;;;5.18;3.70;;;;;;;12.90;56.50;97562.56;5093428;28;20393;-48
2023/10/28 04:54:21;;;;;;;2.55;1.20;;;;;;;12.85;57.13;97559.06;5093325;28;20398;-49
2023/10/28 04:56:47;;;;;;;7.25;1.48;;;;;;;12.78;56.97;97567.16;5093360;28;20027;-48
2023/10/28 04:59:12;;;;;;;3.70;0.75;;;;;;;12.78;56.95;97557.41;5093332;28;20617;-49
2023/10/28 05:01:38;;;;;;;3.08;1.00;;;;;;;12.76;57.27;97571.88;5093214;28;20056;-48
2023/10/28 05:04:04;;;;;;;20.63;5.78;;;;;;;12.78;57.61;97569.78;5093254;28;20020;-48
2023/10/28 05:06:30;;;;;;;5.03;1.33;;;;;;;12.84;57.18;97573.25;5093101;28;20050;-48
2023/10/28 05:08:56;;;;;;;3.28;1.10;;;;;;;12.91;56.82;97566.00;5093383;28;20663;-48
2023/10/28 05:11:21;;;;;;;7.15;1.10;;;;;;;12.93;56.76;97566.56;5093064;28;20028;-48
2023/10/28 05:13:47;;;;;;;3.65;0.80;;;;;;;12.99;56.34;97568.22;5091450;28;20083;-49
2023/10/28 05:16:13;;;;;;;7.53;1.08;;;;;;;13.06;56.22;97576.75;5092984;28;20020;-48
2023/10/28 05:18:39;;;;;;;5.68;1.10;;;;;;;13.14;55.78;97576.31;5091618;28;20028;-48
2023/10/28 05:21:06;;;;;;;3.83;0.90;;;;;;;13.21;55.79;97583.25;5091545;28;20030;-48
2023/10/28 05:23:31;;;;;;;5.20;1.02;;;;;;;13.23;55.60;97578.53;5092839;28;20023;-48
2023/10/28 05:25:57;;;;;;;5.18;0.88;;;;;;;13.24;55.63;97578.31;5091499;28;20029;-48
2023/10/28 05:28:23;;;;;;;8.85;0.80;;;;;;;13.27;55.65;97577.00;5074581;28;20039;-48
2023/10/28 05:30:48;;;;;;;4.13;0.95;;;;;;;13.25;55.42;97560.66;5092739;28;20034;-49
2023/10/28 05:33:14;;;;;;;3.72;1.02;;;;;;;13.19;55.60;97567.69;5092651;28;20462;-48
2023/10/28 05:35:40;;;;;;;6.97;1.10;;;;;;;13.12;55.82;97565.25;5091212;28;20116;-48
2023/10/28 05:38:05;;;;;;;4.72;1.00;;;;;;;13.15;55.89;97579.75;5092604;28;20020;-49
2023/10/28 05:40:31;;;;;;;5.45;1.20;;;;;;;13.18;56.38;97576.66;5092485;28;20016;-49
2023/10/28 05:42:57;;;;;;;2.88;0.85;;;;;;;13.23;55.98;97579.31;5092472;28;20028;-48
2023/10/28 05:45:23;;;;;;;5.22;1.08;;;;;;;13.23;55.63;97573.25;5092345;28;20059;-48
2023/10/28 05:47:49;;;;;;;2.58;1.30;;;;;;;13.22;55.95;97596.19;5091126;28;20074;-48
2023/10/28 05:50:14;;;;;;;3.22;0.68;;;;;;;13.23;55.93;97584.59;5092274;28;20451;-49
2023/10/28 05:52:40;;;;;;;3.67;1.08;;;;;;;13.24;56.00;97578.31;5092572;28;20031;-49
2023/10/28 05:55:13;;;;;;;2.35;1.05;;;;;;;13.14;56.26;97588.72;5092170;28;20012;-48
2023/10/28 05:57:39;;;;;;;4.00;0.98;;;;;;;13.09;56.71;97580.72;5091025;28;20032;-48
2023/10/28 06:00:10;;;;;;;2.88;0.80;;;;;;;13.11;57.12;97587.34;5092183;28;20026;-48
2023/10/28 06:02:39;;;;;;;1.35;0.55;;;;;;;13.14;57.13;97584.22;5090246;28;20520;-48
2023/10/28 06:05:06;;;;;;;3.72;1.25;;;;;;;13.13;57.22;97581.84;5090797;28;20020;-48
2023/10/28 06:07:33;;;;;;;5.78;1.20;;;;;;;13.12;57.55;97593.41;5092095;28;20028;-48
2023/10/28 06:09:59;;;;;;;5.00;0.80;;;;;;;13.13;57.58;97587.09;5092101;28;20027;-48
2023/10/28 06:12:25;;;;;;;3.35;1.42;;;;;;;13.06;57.82;97583.84;5091972;28;20028;-48
2023/10/28 06:14:51;;;;;;;3.42;1.40;;;;;;;12.98;58.22;97583.22;5090459;28;20074;-48
2023/10/28 06:17:17;;;;;;;5.38;0.85;;;;;;;12.91;58.56;97576.53;5091976;28;20016;-48
2023/10/28 06:19:43;;;;;;;4.63;1.00;;;;;;;12.90;58.66;97582.84;5091965;28;20028;-48
2023/10/28 06:22:11;;;;;;;2.80;0.77;;;;;;;12.87;58.79;97593.84;5091942;28;20055;-48
2023/10/28 06:24:40;;;;;;;6.78;2.20;;;;;;;12.88;59.08;97593.63;5091898;28;20405;-48
2023/10/28 06:27:07;;;;;;;4.30;1.17;;;;;;;13.04;58.77;97589.38;5091845;28;20020;-48
2023/10/28 06:29:32;;;;;;;5.55;1.23;;;;;;;13.37;57.76;97585.84;5091779;28;20024;-48
2023/10/28 06:31:58;;;;;;;4.03;1.13;;;;;;;13.68;57.09;97585.41;5092101;28;20035;-48
2023/10/28 06:34:27;;;;;;;5.65;0.90;;;;;;;13.87;56.16;97596.44;5090442;28;20482;-48
2023/10/28 06:36:56;;;;;;;2.58;1.30;;;;;;;13.95;55.80;97588.06;5091741;28;20025;-48
2023/10/28 06:39:22;;;;;;;5.90;1.02;;;;;;;13.89;55.69;97573.25;5091789;28;20065;-48
2023/10/28 06:41:48;;;;;;;6.70;1.38;;;;;;;13.83;55.71;97587.44;5091802;28;20436;-48
2023/10/28 06:44:15;;;;;;;5.15;1.50;;;;;;;13.73;56.15;97591.53;5091780;28;20428;-48
2023/10/28 06:46:41;;;;;;;5.50;1.23;;;;;;;13.70;56.29;97588.59;5090332;28;20073;-48
2023/10/28 06:49:08;;;;;;;2.97;1.10;;;;;;;13.78;56.36;97586.31;5091745;28;20298;-48
2023/10/28 06:51:34;;;;;;;3.30;1.00;;;;;;;14.01;55.93;97594.19;5091666;28;20081;-48
2023/10/28 06:53:59;;;;;;;4.75;2.03;;;;;;;14.44;54.90;97587.16;5091794;28;20024;-48
2023/10/28 06:56:25;;;;;;;4.95;1.42;;;;;;;14.97;53.39;97588.91;5091618;28;20029;-48
2023/10/28 06:58:51;;;;;;;6.38;1.27;;;;;;;15.39;51.96;97597.81;5091635;28;20367;-48
2023/10/28 07:01:19;;;;;;;3.60;1.02;;;;;;;15.56;51.05;97593.13;5090195;28;20042;-48
2023/10/28 07:03:45;;;;;;;4.35;1.33;;;;;;;15.77;50.64;97593.22;5091594;28;20023;-48
2023/10/28 07:06:17;;;;;;;5.05;1.13;;;;;;;15.83;50.10;97610.69;5091808;28;20030;-48
2023/10/28 07:08:45;;;;;;;8.35;1.70;;;;;;;15.57;50.44;97600.00;5091458;28;20045;-48
2023/10/28 07:11:11;;;;;;;6.68;1.60;;;;;;;15.31;50.94;97609.69;5091469;28;20042;-48
2023/10/28 07:13:38;;;;;;;6.20;1.60;;;;;;;15.38;51.12;97620.03;5091732;28;20076;-48
2023/10/28 07:16:04;;;;;;;8.07;1.52;;;;;;;15.46;50.90;97610.81;5095252;28;20025;-49
2023/10/28 07:18:31;;;;;;;4.65;1.23;;;;;;;15.42;50.97;97607.09;5095275;28;20034;-48
2023/10/28 07:20:57;;;;;;;5.35;1.23;;;;;;;15.41;50.59;97608.91;5094005;28;20024;-48
2023/10/28 07:23:30;;;;;;;6.93;1.67;;;;;;;15.31;50.96;97606.22;5093841;28;20028;-48
2023/10/28 07:25:57;;;;;;;3.08;1.13;;;;;;;15.34;51.13;97613.66;5095137;28;20034;-49
2023/10/28 07:28:24;;;;;;;4.82;1.55;;;;;;;15.49;50.78;97616.38;5093811;28;20032;-48
2023/10/28 07:30:52;;;;;;;2.92;1.10;;;;;;;15.48;50.16;97625.34;5094972;28;20020;-49
2023/10/28 07:33:23;;;;;;;6.35;2.05;;;;;;;15.53;50.24;97612.16;5094946;28;20127;-48
2023/10/28 07:35:50;;;;;;;4.40;1.50;;;;;;;15.75;49.20;97609.38;5094864;28;20024;-48
2023/10/28 07:38:17;;;;;;;7.03;1.30;;;;;;;15.95;49.19;97619.19;5095123;28;20417;-48
2023/10/28 07:40:47;;;;;;;3.78;0.80;;;;;;;16.11;48.81;97624.50;5093647;28;20055;-48
2023/10/28 07:43:14;;;;;;;5.25;1.33;;;;;;;16.14;48.31;97630.09;5093681;28;20031;-48
2023/10/28 07:45:41;;;;;;;3.83;1.58;;;;;;;16.09;48.30;97626.63;5094720;28;20031;-49
2023/10/28 07:48:08;;;;;;;5.45;1.00;;;;;;;15.90;48.66;97637.69;5094754;28;20028;-48
2023/10/28 07:50:35;;;;;;;4.30;1.10;;;;;;;15.67;48.79;97638.91;5093464;28;20051;-48
2023/10/28 07:53:01;;;;;;;4.30;1.00;;;;;;;15.44;49.38;97634.84;5094625;28;20020;-49
2023/10/28 07:55:27;;;;;;;2.20;0.90;;;;;;;15.24;50.48;97642.69;5094513;28;20108;-49
2023/10/28 07:57:54;;;;;;;5.20;1.33;;;;;;;15.06;51.18;97641.25;5094557;28;20401;-49
2023/10/28 08:00:20;;;;;;;3.10;1.30;;;;;;;14.90;51.75;97640.34;5094400;28;20020;-48
2023/10/28 08:02:46;;;;;;;5.28;2.28;;;;;;;14.79;52.18;97636.84;5094468;28;20027;-48
2023/10/28 08:05:13;;;;;;;4.65;1.40;;;;;;;14.76;52.65;97635.50;5094417;28;20028;-48
2023/10/28 08:07:38;;;;;;;3.30;1.20;;;;;;;14.82;52.66;97638.19;5094343;28;20020;-48
2023/10/28 08:10:06;;;;;;;3.30;1.30;;;;;;;14.93;52.07;97651.22;5076139;28;20450;-48
2023/10/28 08:12:32;;;;;;;3.58;1.38;;;;;;;15.18;51.97;97663.00;5094513;28;20016;-48
2023/10/28 08:15:02;;;;;;;6.20;1.00;;;;;;;15.50;51.70;97654.97;5093897;28;20052;-48
2023/10/28 08:17:31;;;;;;;4.05;1.23;;;;;;;15.99;50.18;97661.78;5094134;28;20031;-48
2023/10/28 08:19:56;;;;;;;3.55;1.30;;;;;;;16.50;49.08;97659.25;5092852;28;20035;-48
2023/10/28 08:22:24;;;;;;;3.75;1.00;;;;;;;16.78;47.68;97663.25;5094049;28;20394;-49
2023/10/28 08:24:50;;;;;;;1.60;0.70;;;;;;;17.19;46.78;97651.03;5093878;28;20123;-48
2023/10/28 08:27:16;;;;;;;5.43;1.00;;;;;;;18.05;45.75;97646.47;5093376;28;20452;-46
2023/10/28 08:29:43;;;;;;;3.35;1.25;;;;;;;18.76;42.64;97659.25;5092744;28;20016;-46
2023/10/28 08:32:10;;;;;;;5.50;1.15;;;;;;;19.35;42.39;97660.03;5093893;28;20016;-46
2023/10/28 08:34:36;;;;;;;4.00;0.80;;;;;;;19.51;41.35;97659.88;5092568;28;20020;-46
2023/10/28 08:37:02;;;;;;;3.42;0.93;;;;;;;19.48;41.30;97655.94;5093739;28;20027;-46
2023/10/28 08:39:29;;;;;;;4.45;1.10;;;;;;;19.97;40.08;97666.56;5092430;28;20024;-46
2023/10/28 08:41:57;;;;;;;4.03;1.42;;;;;;;20.05;39.80;97680.03;5093629;28;20023;-46
2023/10/28 08:44:27;;;;;;;4.00;2.65;;;;;;;19.93;39.58;97667.13;5093685;28;20085;-46
2023/10/28 08:46:54;;;;;;;3.75;1.10;;;;;;;20.03;39.27;97676.06;5093645;28;20393;-46
2023/10/28 08:49:21;;;;;;;2.88;1.05;;;;;;;20.18;38.70;97672.41;5093855;28;20431;-45
2023/10/28 08:51:54;;;;;;;3.50;1.20;;;;;;;19.80;38.68;97677.69;5092182;28;20032;-46
2023/10/28 08:54:21;;;;;;;5.57;1.80;;;;;;;19.39;39.98;97678.13;5093477;28;20079;-46
2023/10/28 08:56:47;;;;;;;5.68;3.38;;;;;;;19.24;39.96;97679.88;5093450;28;20082;-46
2023/10/28 08:59:14;;;;;;;3.08;0.90;;;;;;;18.84;41.08;97694.31;5093292;28;20436;-46
2023/10/28 09:01:40;;;;;;;3.17;1.05;;;;;;;18.89;42.15;97692.41;5093253;28;20163;-46
2023/10/28 09:04:05;;;;;;;8.20;1.40;;;;;;;18.75;42.12;97697.56;5093287;28;20390;-46
2023/10/28 09:06:32;;;;;;;6.30;1.50;;;;;;;18.48;42.59;97713.16;5093197;28;20013;-46
2023/10/28 09:08:59;;;;;;;3.35;0.98;;;;;;;18.13;42.86;97717.59;5093140;28;20439;-46
2023/10/28 09:11:25;;;;;;;2.65;0.98;;;;;;;17.72;43.77;97729.13;5091774;28;20025;-46
2023/10/28 09:13:51;;;;;;;5.40;1.13;;;;;;;17.34;44.28;97719.94;5092705;28;20411;-46
2023/10/28 09:16:17;;;;;;;3.30;1.45;;;;;;;16.94;45.57;97730.31;5091666;28;20024;-46
2023/10/28 09:18:44;;;;;;;3.80;0.98;;;;;;;16.68;46.46;97736.59;5092970;28;20035;-45
2023/10/28 09:21:12;;;;;;;2.20;0.90;;;;;;;16.51;46.84;97734.19;5092936;28;20036;-46
2023/10/28 09:23:39;;;;;;;3.33;1.10;;;;;;;16.30;47.72;97747.41;5092911;28;20020;-46
2023/10/28 09:26:05;;;;;;;6.30;2.25;;;;;;;16.32;48.37;97749.78;5091501;28;20032;-46
2023/10/28 09:28:31;;;;;;;4.43;2.28;;;;;;;16.40;48.56;97757.22;5092812;28;20028;-46
2023/10/28 09:30:59;;;;;;;10.00;3.05;;;;;;;16.37;48.34;97769.13;5092759;28;20028;-46
2023/10/28 09:33:30;;;;;;;3.33;1.30;;;;;;;16.35;48.71;97781.81;5092709;28;20020;-46
2023/10/28 09:35:57;;;;;;;4.40;1.60;;;;;;;16.32;49.04;97765.69;5092649;28;20107;-46
2023/10/28 09:38:23;;;;;;;7.20;1.60;;;;;;;16.48;48.88;97769.16;5091697;28;20050;-45
2023/10/28 09:40:50;;;;;;;4.20;1.35;;;;;;;16.62;48.22;97762.31;5092478;28;20107;-46
2023/10/28 09:43:16;;;;;;;4.80;1.40;;;;;;;16.50;48.31;97757.25;5092544;28;20095;-46
2023/10/28 09:45:53;;;;;;;7.53;1.58;;;;;;;16.32;48.63;97752.44;5092458;28;20549;-46
2023/10/28 09:48:19;;;;;;;4.70;1.27;;;;;;;16.25;49.13;97742.06;5092799;28;20082;-46
2023/10/28 09:50:52;;;;;;;6.07;1.98;;;;;;;16.15;49.93;97748.13;5092394;28;20055;-46
2023/10/28 09:53:35;;;;;;;6.22;1.95;;;;;;;16.02;50.40;97729.28;5092349;28;20031;-46
2023/10/28 09:56:02;;;;;;;4.30;1.52;;;;;;;15.88;50.61;97739.56;5092567;28;20089;-46
2023/10/28 09:58:46;;;;;;;4.82;1.20;;;;;;;15.73;51.46;97737.63;5092280;28;20020;-46
2023/10/28 10:01:31;;;;;;;4.35;1.10;;;;;;;15.74;52.13;97726.78;5092303;28;20512;-46
2023/10/28 10:04:00;;;;;;;5.97;1.20;;;;;;;15.82;52.07;97722.88;5092548;28;20088;-46
2023/10/28 10:06:27;;;;;;;3.40;1.17;;;;;;;15.92;51.68;97714.19;5090838;28;20639;-46
2023/10/28 10:08:55;;;;;;;2.38;0.90;;;;;;;16.09;50.85;97714.75;5090881;28;20032;-46
2023/10/28 10:11:25;;;;;;;2.35;0.93;;;;;;;16.11;50.82;97707.34;5092003;28;20039;-46
2023/10/28 10:13:51;;;;;;;2.60;0.93;;;;;;;16.16;49.85;97710.03;5091801;28;20075;-46
2023/10/28 10:17:14;;;;;;;3.25;1.02;;;;;;;16.15;50.45;97699.69;5091997;28;20020;-46
2023/10/28 10:19:41;;;;;;;5.63;0.73;;;;;;;16.20;49.95;97706.84;5029696;28;20042;-46
2023/10/28 10:22:07;;;;;;;4.90;0.88;;;;;;;16.46;49.86;97705.06;5029614;28;20029;-46
2023/10/28 10:24:32;;;;;;;1.58;0.65;;;;;;;17.43;46.72;97702.41;5029604;28;20049;-46
2023/10/28 10:27:00;;;;;;;12.93;11.60;;;;;;;18.24;44.85;97684.59;5029501;28;20044;-46
2023/10/28 10:29:29;;;;;;;5.10;2.05;;;;;;;19.00;42.97;97669.19;5029585;28;20026;-46
2023/10/28 10:31:56;;;;;;;2.90;1.13;;;;;;;19.37;42.21;97665.09;5029499;28;20420;-46
2023/10/28 10:34:43;;;;;;;3.35;0.82;;;;;;;19.73;40.89;97667.38;5013067;28;20029;-46
2023/10/28 10:37:24;;;;;;;4.22;0.70;;;;;;;19.90;40.19;97667.72;5029468;28;20037;-46
2023/10/28 10:39:49;;;;;;;4.03;0.57;;;;;;;20.18;39.84;97675.06;5029472;28;20114;-46
2023/10/28 10:42:15;;;;;;;2.42;0.90;;;;;;;20.86;39.81;97668.47;5029398;28;20558;-46
2023/10/28 10:44:41;;;;;;;1.88;0.80;;;;;;;21.62;37.58;97673.53;5029412;28;20041;-46
2023/10/28 10:47:12;;;;;;;4.53;1.40;;;;;;;22.17;37.11;97678.78;5012801;28;20171;-46
2023/10/28 10:49:39;;;;;;;4.93;1.38;;;;;;;23.14;36.28;97675.78;5042962;28;20135;-46
2023/10/28 10:52:06;;;;;;;2.42;0.90;;;;;;;24.38;33.64;97673.91;5095783;28;20099;-46
2023/10/28 10:54:39;;;;;;;4.68;1.50;;;;;;;24.42;32.55;97661.44;5094543;28;20029;-46
2023/10/28 10:57:07;;;;;;;3.53;1.00;;;;;;;24.47;32.90;97650.56;5095730;28;20517;-46
2023/10/28 10:59:34;;;;;;;4.72;1.00;;;;;;;24.26;33.50;97638.88;5095707;28;20489;-46
2023/10/28 11:02:00;;;;;;;3.08;1.13;;;;;;;24.29;33.30;97641.72;5094277;28;20093;-46
2023/10/28 11:04:28;;;;;;;4.85;1.45;;;;;;;23.92;33.43;97635.06;5095571;28;20030;-46
2023/10/28 11:06:54;;;;;;;2.65;1.00;;;;;;;23.55;34.48;97629.16;5095573;28;20065;-46
2023/10/28 11:09:21;;;;;;;3.60;1.10;;;;;;;23.45;33.81;97626.75;5094177;28;20032;-46
2023/10/28 11:11:47;;;;;;;2.47;1.13;;;;;;;23.27;34.22;97609.84;5095337;28;20023;-46
2023/10/28 11:14:13;;;;;;;4.30;1.55;;;;;;;23.73;34.26;97620.03;5095007;28;20032;-46
2023/10/28 11:16:42;;;;;;;4.70;1.17;;;;;;;23.98;33.61;97617.72;5094102;28;20024;-47
2023/10/28 11:19:08;;;;;;;3.85;0.60;;;;;;;24.09;33.00;97615.53;5095337;28;20031;-46
2023/10/28 11:21:36;;;;;;;1.90;0.90;;;;;;;24.12;32.70;97606.84;5095261;28;20016;-46
2023/10/28 11:24:04;;;;;;;3.75;0.70;;;;;;;23.92;32.99;97622.47;5095123;28;20028;-47
2023/10/28 11:26:30;;;;;;;4.03;1.33;;;;;;;24.06;33.34;97608.91;5093947;28;20397;-47
2023/10/28 11:28:59;;;;;;;2.67;1.13;;;;;;;24.32;33.01;97610.78;5095426;28;20039;-47
2023/10/28 11:31:31;;;;;;;4.18;1.10;;;;;;;24.61;32.79;97628.13;5093849;28;20027;-47
2023/10/28 11:33:58;;;;;;;4.93;1.50;;;;;;;24.58;32.49;97618.06;5094970;28;20035;-47